Gorman, South Dakota
Current Conditions -  °F | °C
As of 5:52 PM on Monday 20 Oct 2014 (Local Time) from KMBG Reporting Station
Clear Clear  
Wind Chill: 71°   Ceiling: Unl
Heat Index: 71°   Visibility: 10mi
Dew Point: 37°   Wind: 9mph
Humidity: 29%   Direction: 150°SSE
Pressure: 29.94"   Gusts: NA
Location:  45.0613°N, 100.079°W
Report Text: KMBG 202252Z AUTO 15008KT 10SM CLR 22/03 A2994 RMK AO2 SLP140 T02170028
Loading
Personal Weather Stations






























Interactive Weather Map
Tropical Storm Tracking
New forecast layout! Learn more

10-Day Weather Forecast

Advertisements
Track Severe Weather on mobile